sensor_id;sensor_type;location;lat;lon;timestamp;pressure;altitude;pressure_sealevel;temperature;humidity
65376;BME280;51976;47.332;9.404;2023-02-12T00:01:00;94384.75;;;-0.90;58.93
65376;BME280;51976;47.332;9.404;2023-02-12T00:03:26;94368.34;;;-0.86;58.83
65376;BME280;51976;47.332;9.404;2023-02-12T00:05:51;94382.19;;;-1.07;59.53
65376;BME280;51976;47.332;9.404;2023-02-12T00:08:16;94349.84;;;-1.48;60.56
65376;BME280;51976;47.332;9.404;2023-02-12T00:10:42;94370.16;;;-1.48;61.04
65376;BME280;51976;47.332;9.404;2023-02-12T00:13:09;94369.50;;;-1.50;60.35
65376;BME280;51976;47.332;9.404;2023-02-12T00:15:41;94385.59;;;-1.29;60.07
65376;BME280;51976;47.332;9.404;2023-02-12T00:18:07;94392.94;;;-1.08;59.10
65376;BME280;51976;47.332;9.404;2023-02-12T00:20:33;94377.38;;;-1.34;59.55
65376;BME280;51976;47.332;9.404;2023-02-12T00:22:59;94397.16;;;-1.22;59.63
65376;BME280;51976;47.332;9.404;2023-02-12T00:25:24;94362.22;;;-1.40;59.66
65376;BME280;51976;47.332;9.404;2023-02-12T00:27:49;94382.72;;;-1.42;60.26
65376;BME280;51976;47.332;9.404;2023-02-12T00:30:15;94386.06;;;-1.56;60.74
65376;BME280;51976;47.332;9.404;2023-02-12T00:32:40;94384.91;;;-1.62;61.24
65376;BME280;51976;47.332;9.404;2023-02-12T00:35:06;94387.28;;;-1.36;60.93
65376;BME280;51976;47.332;9.404;2023-02-12T00:37:31;94385.41;;;-1.58;61.63
65376;BME280;51976;47.332;9.404;2023-02-12T00:39:57;94400.44;;;-1.59;61.33
65376;BME280;51976;47.332;9.404;2023-02-12T00:42:22;94389.03;;;-1.51;60.82
65376;BME280;51976;47.332;9.404;2023-02-12T00:44:47;94353.75;;;-1.83;61.03
65376;BME280;51976;47.332;9.404;2023-02-12T00:47:13;94384.81;;;-1.85;61.46
65376;BME280;51976;47.332;9.404;2023-02-12T00:49:38;94403.81;;;-1.81;61.30
65376;BME280;51976;47.332;9.404;2023-02-12T00:52:04;94408.41;;;-1.67;61.41
65376;BME280;51976;47.332;9.404;2023-02-12T00:54:30;94390.44;;;-1.80;60.89
65376;BME280;51976;47.332;9.404;2023-02-12T00:56:56;94402.75;;;-1.56;60.74
65376;BME280;51976;47.332;9.404;2023-02-12T00:59:23;94408.69;;;-1.54;60.75
65376;BME280;51976;47.332;9.404;2023-02-12T01:01:49;94397.75;;;-1.43;60.43
65376;BME280;51976;47.332;9.404;2023-02-12T01:04:15;94355.06;;;-1.79;60.55
65376;BME280;51976;47.332;9.404;2023-02-12T01:06:40;94378.44;;;-1.98;60.92
65376;BME280;51976;47.332;9.404;2023-02-12T01:09:06;94370.91;;;-1.71;60.18
65376;BME280;51976;47.332;9.404;2023-02-12T01:11:31;94340.34;;;-1.73;60.05
65376;BME280;51976;47.332;9.404;2023-02-12T01:13:57;94386.19;;;-1.42;59.89
65376;BME280;51976;47.332;9.404;2023-02-12T01:16:23;94377.09;;;-1.39;59.84
65376;BME280;51976;47.332;9.404;2023-02-12T01:18:50;94363.97;;;-1.72;60.58
65376;BME280;51976;47.332;9.404;2023-02-12T01:21:19;94386.38;;;-1.51;60.25
65376;BME280;51976;47.332;9.404;2023-02-12T01:23:45;94357.97;;;-1.57;59.76
65376;BME280;51976;47.332;9.404;2023-02-12T01:26:11;94354.47;;;-1.50;59.56
65376;BME280;51976;47.332;9.404;2023-02-12T01:28:38;94374.81;;;-1.50;59.95
65376;BME280;51976;47.332;9.404;2023-02-12T01:31:09;94378.34;;;-1.66;60.34
65376;BME280;51976;47.332;9.404;2023-02-12T01:33:35;94320.13;;;-1.97;59.82
65376;BME280;51976;47.332;9.404;2023-02-12T01:36:00;94347.13;;;-1.71;60.06
65376;BME280;51976;47.332;9.404;2023-02-12T01:38:25;94378.84;;;-1.71;60.09
65376;BME280;51976;47.332;9.404;2023-02-12T01:40:51;94361.19;;;-1.78;60.06
65376;BME280;51976;47.332;9.404;2023-02-12T01:43:16;94335.25;;;-1.83;59.82
65376;BME280;51976;47.332;9.404;2023-02-12T01:45:48;94354.00;;;-2.09;60.67
65376;BME280;51976;47.332;9.404;2023-02-12T01:48:18;94342.69;;;-1.78;60.15
65376;BME280;51976;47.332;9.404;2023-02-12T01:50:45;94337.22;;;-1.68;60.02
65376;BME280;51976;47.332;9.404;2023-02-12T01:53:12;94309.88;;;-1.92;60.49
65376;BME280;51976;47.332;9.404;2023-02-12T01:55:45;94321.47;;;-2.17;61.15
65376;BME280;51976;47.332;9.404;2023-02-12T01:58:12;94351.84;;;-1.58;60.21
65376;BME280;51976;47.332;9.404;2023-02-12T02:00:38;94293.56;;;-2.12;60.26
65376;BME280;51976;47.332;9.404;2023-02-12T02:03:04;94350.44;;;-1.77;60.29
65376;BME280;51976;47.332;9.404;2023-02-12T02:05:40;94299.34;;;-2.08;60.24
65376;BME280;51976;47.332;9.404;2023-02-12T02:08:08;94359.13;;;-1.60;59.91
65376;BME280;51976;47.332;9.404;2023-02-12T02:10:34;94354.75;;;-1.84;60.46
65376;BME280;51976;47.332;9.404;2023-02-12T02:12:59;94351.84;;;-1.97;60.59
65376;BME280;51976;47.332;9.404;2023-02-12T02:15:47;94330.88;;;-2.07;60.59
65376;BME280;51976;47.332;9.404;2023-02-12T02:18:25;94348.97;;;-1.87;60.03
65376;BME280;51976;47.332;9.404;2023-02-12T02:21:12;94344.81;;;-1.74;58.98
65376;BME280;51976;47.332;9.404;2023-02-12T02:23:51;94342.97;;;-1.65;59.22
65376;BME280;51976;47.332;9.404;2023-02-12T02:32:35;94336.25;;;-1.84;60.35
65376;BME280;51976;47.332;9.404;2023-02-12T02:35:10;94348.78;;;-1.69;59.18
65376;BME280;51976;47.332;9.404;2023-02-12T02:37:47;94312.53;;;-2.00;59.84
65376;BME280;51976;47.332;9.404;2023-02-12T02:40:18;94343.59;;;-2.10;60.65
65376;BME280;51976;47.332;9.404;2023-02-12T02:42:53;94325.13;;;-2.18;60.58
65376;BME280;51976;47.332;9.404;2023-02-12T02:45:27;94346.75;;;-2.15;60.73
65376;BME280;51976;47.332;9.404;2023-02-12T02:48:09;94333.56;;;-2.31;61.30
65376;BME280;51976;47.332;9.404;2023-02-12T02:50:40;94318.84;;;-2.17;61.51
65376;BME280;51976;47.332;9.404;2023-02-12T02:53:10;94322.44;;;-1.94;60.83
65376;BME280;51976;47.332;9.404;2023-02-12T02:55:45;94303.97;;;-2.18;60.55
65376;BME280;51976;47.332;9.404;2023-02-12T02:58:16;94325.28;;;-2.12;61.06
65376;BME280;51976;47.332;9.404;2023-02-12T03:01:09;94330.06;;;-2.15;61.05
65376;BME280;51976;47.332;9.404;2023-02-12T03:03:41;94305.69;;;-2.33;61.18
65376;BME280;51976;47.332;9.404;2023-02-12T03:06:14;94318.34;;;-2.13;60.66
65376;BME280;51976;47.332;9.404;2023-02-12T03:08:48;94324.34;;;-2.27;61.18
65376;BME280;51976;47.332;9.404;2023-02-12T03:11:26;94331.28;;;-2.34;61.41
65376;BME280;51976;47.332;9.404;2023-02-12T03:14:02;94295.66;;;-2.54;61.25
65376;BME280;51976;47.332;9.404;2023-02-12T03:16:36;94311.13;;;-2.35;61.21
65376;BME280;51976;47.332;9.404;2023-02-12T03:19:11;94268.28;;;-2.69;61.08
65376;BME280;51976;47.332;9.404;2023-02-12T03:21:45;94323.13;;;-2.16;60.43
65376;BME280;51976;47.332;9.404;2023-02-12T03:24:21;94334.84;;;-2.02;60.24
65376;BME280;51976;47.332;9.404;2023-02-12T03:27:01;94329.06;;;-2.14;60.28
65376;BME280;51976;47.332;9.404;2023-02-12T03:29:28;94328.47;;;-2.24;60.45
65376;BME280;51976;47.332;9.404;2023-02-12T03:32:19;94315.84;;;-2.06;59.87
65376;BME280;51976;47.332;9.404;2023-02-12T03:35:03;94329.94;;;-2.38;61.89
65376;BME280;51976;47.332;9.404;2023-02-12T03:37:37;94293.03;;;-2.87;63.29
65376;BME280;51976;47.332;9.404;2023-02-12T03:40:20;94303.75;;;-2.56;62.49
65376;BME280;51976;47.332;9.404;2023-02-12T03:43:03;94283.78;;;-2.50;62.06
65376;BME280;51976;47.332;9.404;2023-02-12T03:45:43;94323.50;;;-2.35;61.32
65376;BME280;51976;47.332;9.404;2023-02-12T03:48:40;94306.00;;;-2.28;61.71
65376;BME280;51976;47.332;9.404;2023-02-12T03:51:22;94326.19;;;-2.52;62.49
65376;BME280;51976;47.332;9.404;2023-02-12T03:53:49;94309.34;;;-2.51;62.24
65376;BME280;51976;47.332;9.404;2023-02-12T03:56:21;94257.72;;;-2.69;61.77
65376;BME280;51976;47.332;9.404;2023-02-12T03:58:48;94306.00;;;-2.36;61.33
65376;BME280;51976;47.332;9.404;2023-02-12T04:01:14;94317.59;;;-2.62;61.49
65376;BME280;51976;47.332;9.404;2023-02-12T04:03:40;94308.50;;;-2.35;61.01
65376;BME280;51976;47.332;9.404;2023-02-12T04:06:19;94316.56;;;-2.28;60.99
65376;BME280;51976;47.332;9.404;2023-02-12T04:08:44;94320.88;;;-2.44;61.02
65376;BME280;51976;47.332;9.404;2023-02-12T04:11:19;94319.50;;;-2.15;60.43
65376;BME280;51976;47.332;9.404;2023-02-12T04:17:19;94331.88;;;-2.16;60.97
65376;BME280;51976;47.332;9.404;2023-02-12T04:20:04;94343.31;;;-2.23;61.08
65376;BME280;51976;47.332;9.404;2023-02-12T04:23:02;94334.72;;;-2.25;61.04
65376;BME280;51976;47.332;9.404;2023-02-12T04:25:50;94319.22;;;-2.28;60.81
65376;BME280;51976;47.332;9.404;2023-02-12T04:28:55;94347.28;;;-2.19;60.71
65376;BME280;51976;47.332;9.404;2023-02-12T04:31:35;94326.00;;;-2.66;61.27
65376;BME280;51976;47.332;9.404;2023-02-12T04:34:18;94352.56;;;-2.19;60.54
65376;BME280;51976;47.332;9.404;2023-02-12T04:36:50;94332.78;;;-2.48;60.92
65376;BME280;51976;47.332;9.404;2023-02-12T04:39:22;94357.50;;;-2.24;60.40
65376;BME280;51976;47.332;9.404;2023-02-12T04:41:48;94359.31;;;-2.33;61.01
65376;BME280;51976;47.332;9.404;2023-02-12T04:44:18;94337.22;;;-2.24;60.19
65376;BME280;51976;47.332;9.404;2023-02-12T04:46:45;94350.84;;;-2.04;60.24
65376;BME280;51976;47.332;9.404;2023-02-12T04:49:14;94348.09;;;-2.27;60.66
65376;BME280;51976;47.332;9.404;2023-02-12T04:51:40;94356.53;;;-2.31;60.88
65376;BME280;51976;47.332;9.404;2023-02-12T04:54:05;94359.50;;;-2.26;60.87
65376;BME280;51976;47.332;9.404;2023-02-12T04:56:31;94343.69;;;-2.59;61.50
65376;BME280;51976;47.332;9.404;2023-02-12T04:58:56;94356.34;;;-2.30;61.26
65376;BME280;51976;47.332;9.404;2023-02-12T05:01:22;94373.06;;;-2.54;61.22
65376;BME280;51976;47.332;9.404;2023-02-12T05:03:48;94362.97;;;-2.66;61.95
65376;BME280;51976;47.332;9.404;2023-02-12T05:06:13;94385.25;;;-2.53;61.39
65376;BME280;51976;47.332;9.404;2023-02-12T05:08:38;94382.28;;;-2.33;61.28
65376;BME280;51976;47.332;9.404;2023-02-12T05:11:06;94384.09;;;-2.50;61.78
65376;BME280;51976;47.332;9.404;2023-02-12T05:13:31;94377.19;;;-2.51;61.88
65376;BME280;51976;47.332;9.404;2023-02-12T05:15:57;94370.72;;;-2.73;62.10
65376;BME280;51976;47.332;9.404;2023-02-12T05:18:22;94360.84;;;-2.79;62.06
65376;BME280;51976;47.332;9.404;2023-02-12T05:20:55;94382.63;;;-2.53;61.86
65376;BME280;51976;47.332;9.404;2023-02-12T05:23:21;94356.22;;;-2.61;61.48
65376;BME280;51976;47.332;9.404;2023-02-12T05:25:46;94363.13;;;-2.68;61.99
65376;BME280;51976;47.332;9.404;2023-02-12T05:28:12;94368.75;;;-2.63;62.32
65376;BME280;51976;47.332;9.404;2023-02-12T05:30:37;94378.47;;;-2.31;61.36
65376;BME280;51976;47.332;9.404;2023-02-12T05:33:02;94367.09;;;-2.31;61.49
65376;BME280;51976;47.332;9.404;2023-02-12T05:35:28;94367.75;;;-2.38;61.47
65376;BME280;51976;47.332;9.404;2023-02-12T05:37:53;94334.78;;;-2.50;61.62
65376;BME280;51976;47.332;9.404;2023-02-12T05:40:18;94357.19;;;-2.86;62.71
65376;BME280;51976;47.332;9.404;2023-02-12T05:42:44;94332.28;;;-3.16;62.94
65376;BME280;51976;47.332;9.404;2023-02-12T05:45:09;94358.50;;;-2.98;62.76
65376;BME280;51976;47.332;9.404;2023-02-12T05:47:35;94336.25;;;-2.80;61.98
65376;BME280;51976;47.332;9.404;2023-02-12T05:50:00;94362.97;;;-2.66;62.09
65376;BME280;51976;47.332;9.404;2023-02-12T05:52:25;94374.03;;;-2.71;62.20
65376;BME280;51976;47.332;9.404;2023-02-12T05:54:51;94363.16;;;-2.60;61.92
65376;BME280;51976;47.332;9.404;2023-02-12T05:57:16;94370.06;;;-2.43;61.40
65376;BME280;51976;47.332;9.404;2023-02-12T05:59:41;94364.44;;;-2.40;61.44
65376;BME280;51976;47.332;9.404;2023-02-12T06:02:07;94344.34;;;-2.65;61.27
65376;BME280;51976;47.332;9.404;2023-02-12T06:04:32;94354.56;;;-2.62;61.58
65376;BME280;51976;47.332;9.404;2023-02-12T06:06:59;94360.00;;;-2.39;61.38
65376;BME280;51976;47.332;9.404;2023-02-12T06:09:24;94353.72;;;-2.38;61.10
65376;BME280;51976;47.332;9.404;2023-02-12T06:11:50;94351.41;;;-2.41;61.79
65376;BME280;51976;47.332;9.404;2023-02-12T06:14:17;94342.47;;;-3.21;63.94
65376;BME280;51976;47.332;9.404;2023-02-12T06:16:44;94340.19;;;-2.92;63.42
65376;BME280;51976;47.332;9.404;2023-02-12T06:19:10;94355.91;;;-2.74;63.18
65376;BME280;51976;47.332;9.404;2023-02-12T06:21:36;94311.38;;;-3.01;63.42
65376;BME280;51976;47.332;9.404;2023-02-12T06:24:01;94353.25;;;-2.74;62.90
65376;BME280;51976;47.332;9.404;2023-02-12T06:26:27;94347.31;;;-2.76;62.73
65376;BME280;51976;47.332;9.404;2023-02-12T06:28:53;94323.56;;;-2.76;62.65
65376;BME280;51976;47.332;9.404;2023-02-12T06:31:22;94330.97;;;-2.63;62.22
65376;BME280;51976;47.332;9.404;2023-02-12T06:33:48;94341.03;;;-2.51;62.01
65376;BME280;51976;47.332;9.404;2023-02-12T06:36:14;94327.97;;;-2.36;61.78
65376;BME280;51976;47.332;9.404;2023-02-12T06:38:40;94306.88;;;-2.60;61.70
65376;BME280;51976;47.332;9.404;2023-02-12T06:41:06;94334.41;;;-2.22;61.35
65376;BME280;51976;47.332;9.404;2023-02-12T06:43:31;94295.00;;;-2.56;61.63
65376;BME280;51976;47.332;9.404;2023-02-12T06:45:59;94302.59;;;-2.94;62.74
65376;BME280;51976;47.332;9.404;2023-02-12T06:48:26;94291.69;;;-3.23;63.13
65376;BME280;51976;47.332;9.404;2023-02-12T06:50:51;94344.63;;;-3.00;63.58
65376;BME280;51976;47.332;9.404;2023-02-12T06:53:16;94345.31;;;-3.07;63.63
65376;BME280;51976;47.332;9.404;2023-02-12T06:55:42;94323.22;;;-3.14;63.98
65376;BME280;51976;47.332;9.404;2023-02-12T06:58:07;94326.53;;;-2.87;63.21
65376;BME280;51976;47.332;9.404;2023-02-12T07:00:33;94344.66;;;-3.09;63.44
65376;BME280;51976;47.332;9.404;2023-02-12T07:02:58;94352.94;;;-2.79;63.32
65376;BME280;51976;47.332;9.404;2023-02-12T07:05:23;94346.16;;;-2.57;62.65
65376;BME280;51976;47.332;9.404;2023-02-12T07:07:49;94348.78;;;-2.49;62.64
65376;BME280;51976;47.332;9.404;2023-02-12T07:10:16;94354.22;;;-2.59;62.88
65376;BME280;51976;47.332;9.404;2023-02-12T07:12:41;94352.91;;;-2.39;62.55
65376;BME280;51976;47.332;9.404;2023-02-12T07:15:07;94318.59;;;-2.71;62.82
65376;BME280;51976;47.332;9.404;2023-02-12T07:17:32;94345.34;;;-2.74;63.72
65376;BME280;51976;47.332;9.404;2023-02-12T07:19:58;94339.34;;;-2.44;62.63
65376;BME280;51976;47.332;9.404;2023-02-12T07:22:23;94346.28;;;-2.34;62.32
65376;BME280;51976;47.332;9.404;2023-02-12T07:24:48;94328.31;;;-2.72;62.56
65376;BME280;51976;47.332;9.404;2023-02-12T07:27:14;94334.56;;;-2.40;62.50
65376;BME280;51976;47.332;9.404;2023-02-12T07:29:40;94338.97;;;-2.08;61.50
65376;BME280;51976;47.332;9.404;2023-02-12T07:32:05;94291.88;;;-2.60;62.29
65376;BME280;51976;47.332;9.404;2023-02-12T07:34:31;94318.16;;;-2.11;61.70
65376;BME280;51976;47.332;9.404;2023-02-12T07:36:56;94318.66;;;-2.16;61.48
65376;BME280;51976;47.332;9.404;2023-02-12T07:39:21;94321.22;;;-2.63;63.20
65376;BME280;51976;47.332;9.404;2023-02-12T07:41:47;94325.75;;;-2.08;61.99
65376;BME280;51976;47.332;9.404;2023-02-12T07:44:12;94336.31;;;-2.00;61.68
65376;BME280;51976;47.332;9.404;2023-02-12T07:46:41;94333.34;;;-1.97;61.71
65376;BME280;51976;47.332;9.404;2023-02-12T07:49:09;94336.63;;;-1.95;61.68
65376;BME280;51976;47.332;9.404;2023-02-12T07:51:36;94266.97;;;-2.10;61.29
65376;BME280;51976;47.332;9.404;2023-02-12T07:54:02;94340.28;;;-1.57;60.88
65376;BME280;51976;47.332;9.404;2023-02-12T07:56:30;94290.59;;;-1.69;60.68
65376;BME280;51976;47.332;9.404;2023-02-12T07:58:59;94342.97;;;-1.34;60.41
65376;BME280;51976;47.332;9.404;2023-02-12T08:01:28;94338.31;;;-1.24;60.46
65376;BME280;51976;47.332;9.404;2023-02-12T08:03:57;94324.94;;;-1.30;60.15
65376;BME280;51976;47.332;9.404;2023-02-12T08:06:26;94346.06;;;-1.22;60.71
65376;BME280;51976;47.332;9.404;2023-02-12T08:08:53;94339.16;;;-1.00;59.84
65376;BME280;51976;47.332;9.404;2023-02-12T08:11:19;94332.47;;;-0.88;59.62
65376;BME280;51976;47.332;9.404;2023-02-12T08:13:45;94338.28;;;-0.70;59.19
65376;BME280;51976;47.332;9.404;2023-02-12T08:16:14;94297.31;;;-1.28;59.79
65376;BME280;51976;47.332;9.404;2023-02-12T08:18:40;94342.91;;;-0.72;59.48
65376;BME280;51976;47.332;9.404;2023-02-12T08:21:08;94287.69;;;-0.98;59.34
65376;BME280;51976;47.332;9.404;2023-02-12T08:23:34;94325.38;;;-0.73;59.39
65376;BME280;51976;47.332;9.404;2023-02-12T08:26:12;94336.22;;;-0.60;59.23
65376;BME280;51976;47.332;9.404;2023-02-12T08:28:40;94332.47;;;-0.51;59.11
65376;BME280;51976;47.332;9.404;2023-02-12T08:31:09;94332.31;;;-0.12;58.30
65376;BME280;51976;47.332;9.404;2023-02-12T08:33:35;94338.41;;;-0.11;58.14
65376;BME280;51976;47.332;9.404;2023-02-12T08:36:09;94309.81;;;-0.16;58.08
65376;BME280;51976;47.332;9.404;2023-02-12T08:38:36;94328.00;;;0.02;57.80
65376;BME280;51976;47.332;9.404;2023-02-12T08:41:13;94329.66;;;0.18;57.83
65376;BME280;51976;47.332;9.404;2023-02-12T08:43:40;94323.06;;;0.28;57.68
65376;BME280;51976;47.332;9.404;2023-02-12T08:46:09;94295.84;;;0.20;57.50
65376;BME280;51976;47.332;9.404;2023-02-12T08:48:36;94319.22;;;0.46;56.91
65376;BME280;51976;47.332;9.404;2023-02-12T08:51:17;94324.81;;;0.51;57.09
65376;BME280;51976;47.332;9.404;2023-02-12T08:53:45;94306.03;;;0.67;56.40
65376;BME280;51976;47.332;9.404;2023-02-12T08:56:13;94326.28;;;0.53;57.03
65376;BME280;51976;47.332;9.404;2023-02-12T08:58:39;94310.84;;;0.78;57.24
65376;BME280;51976;47.332;9.404;2023-02-12T09:01:13;94285.38;;;0.84;55.88
65376;BME280;51976;47.332;9.404;2023-02-12T09:03:40;94263.19;;;0.70;55.72
65376;BME280;51976;47.332;9.404;2023-02-12T09:06:06;94275.81;;;1.04;54.84
65376;BME280;51976;47.332;9.404;2023-02-12T09:08:32;94305.97;;;1.18;55.60
65376;BME280;51976;47.332;9.404;2023-02-12T09:10:58;94300.78;;;1.31;56.21
65376;BME280;51976;47.332;9.404;2023-02-12T09:13:24;94245.97;;;1.02;55.59
65376;BME280;51976;47.332;9.404;2023-02-12T09:15:50;94313.78;;;1.47;56.04
65376;BME280;51976;47.332;9.404;2023-02-12T09:18:15;94316.66;;;1.46;55.79
65376;BME280;51976;47.332;9.404;2023-02-12T09:20:43;94301.34;;;1.76;55.29
65376;BME280;51976;47.332;9.404;2023-02-12T09:23:10;94283.25;;;1.64;55.14
65376;BME280;51976;47.332;9.404;2023-02-12T09:25:41;94303.25;;;2.10;54.37
65376;BME280;51976;47.332;9.404;2023-02-12T09:28:08;94307.81;;;2.22;54.42
65376;BME280;51976;47.332;9.404;2023-02-12T09:30:35;94307.66;;;2.30;54.09
65376;BME280;51976;47.332;9.404;2023-02-12T09:33:01;94314.97;;;1.94;54.26
65376;BME280;51976;47.332;9.404;2023-02-12T09:35:26;94306.97;;;1.87;54.69
65376;BME280;51976;47.332;9.404;2023-02-12T09:37:52;94302.34;;;2.30;54.43
65376;BME280;51976;47.332;9.404;2023-02-12T09:40:21;94308.72;;;2.01;54.35
65376;BME280;51976;47.332;9.404;2023-02-12T09:43:00;94304.66;;;2.47;53.69
65376;BME280;51976;47.332;9.404;2023-02-12T09:45:29;94302.72;;;2.27;53.70
65376;BME280;51976;47.332;9.404;2023-02-12T09:48:23;94290.38;;;2.54;53.52
65376;BME280;51976;47.332;9.404;2023-02-12T09:50:54;94288.78;;;2.60;53.12
65376;BME280;51976;47.332;9.404;2023-02-12T09:53:27;94275.09;;;2.76;52.43
65376;BME280;51976;47.332;9.404;2023-02-12T09:55:54;94280.22;;;2.78;52.55
65376;BME280;51976;47.332;9.404;2023-02-12T09:58:41;94297.31;;;2.96;52.55
65376;BME280;51976;47.332;9.404;2023-02-12T10:01:13;94297.50;;;3.01;52.52
65376;BME280;51976;47.332;9.404;2023-02-12T10:03:39;94291.03;;;3.24;52.26
65376;BME280;51976;47.332;9.404;2023-02-12T10:06:13;94220.41;;;2.73;52.53
65376;BME280;51976;47.332;9.404;2023-02-12T10:08:58;94254.91;;;2.95;52.21
65376;BME280;51976;47.332;9.404;2023-02-12T10:11:49;94273.41;;;3.36;52.06
65376;BME280;51976;47.332;9.404;2023-02-12T10:14:44;94289.66;;;3.74;51.83
65376;BME280;51976;47.332;9.404;2023-02-12T10:17:22;94288.59;;;3.88;51.96
65376;BME280;51976;47.332;9.404;2023-02-12T10:20:14;94289.22;;;3.97;51.15
65376;BME280;51976;47.332;9.404;2023-02-12T10:23:15;94277.16;;;3.81;51.30
65376;BME280;51976;47.332;9.404;2023-02-12T10:25:54;94276.72;;;3.91;51.26
65376;BME280;51976;47.332;9.404;2023-02-12T10:28:33;94259.06;;;3.96;51.24
65376;BME280;51976;47.332;9.404;2023-02-12T10:31:15;94274.41;;;4.27;50.74
65376;BME280;51976;47.332;9.404;2023-02-12T10:33:46;94280.59;;;3.95;51.23
65376;BME280;51976;47.332;9.404;2023-02-12T10:36:36;94279.16;;;3.99;51.34
65376;BME280;51976;47.332;9.404;2023-02-12T10:39:25;94270.28;;;4.31;50.99
65376;BME280;51976;47.332;9.404;2023-02-12T10:42:15;94277.66;;;4.42;50.20
65376;BME280;51976;47.332;9.404;2023-02-12T10:44:42;94256.13;;;4.37;49.84
65376;BME280;51976;47.332;9.404;2023-02-12T10:47:17;94255.56;;;4.09;51.27
65376;BME280;51976;47.332;9.404;2023-02-12T10:49:43;94272.19;;;3.85;51.95
65376;BME280;51976;47.332;9.404;2023-02-12T10:52:25;94267.03;;;4.16;51.03
65376;BME280;51976;47.332;9.404;2023-02-12T10:54:54;94260.44;;;4.25;50.63
65376;BME280;51976;47.332;9.404;2023-02-12T10:57:23;94260.69;;;3.91;51.21
65376;BME280;51976;47.332;9.404;2023-02-12T10:59:51;94258.84;;;3.98;51.16
65376;BME280;51976;47.332;9.404;2023-02-12T11:02:26;94259.00;;;4.23;50.66
65376;BME280;51976;47.332;9.404;2023-02-12T11:04:53;94264.56;;;4.15;51.55
65376;BME280;51976;47.332;9.404;2023-02-12T11:07:20;94256.06;;;4.44;50.72
65376;BME280;51976;47.332;9.404;2023-02-12T11:09:52;94233.25;;;4.48;50.50
65376;BME280;51976;47.332;9.404;2023-02-12T11:12:25;94216.13;;;4.11;51.78
65376;BME280;51976;47.332;9.404;2023-02-12T11:14:56;94230.16;;;4.64;50.97
65376;BME280;51976;47.332;9.404;2023-02-12T11:17:25;94204.16;;;4.33;51.27
65376;BME280;51976;47.332;9.404;2023-02-12T11:20:06;94224.75;;;5.09;50.37
65376;BME280;51976;47.332;9.404;2023-02-12T11:22:35;94236.53;;;4.95;50.67
65376;BME280;51976;47.332;9.404;2023-02-12T11:25:13;94241.56;;;4.78;51.06
65376;BME280;51976;47.332;9.404;2023-02-12T11:27:40;94238.09;;;4.71;51.37
65376;BME280;51976;47.332;9.404;2023-02-12T11:30:14;94148.13;;;4.27;51.25
65376;BME280;51976;47.332;9.404;2023-02-12T11:32:39;94237.69;;;4.74;51.64
65376;BME280;51976;47.332;9.404;2023-02-12T11:35:12;94234.16;;;4.80;52.07
65376;BME280;51976;47.332;9.404;2023-02-12T11:37:41;94231.19;;;5.33;51.10
65376;BME280;51976;47.332;9.404;2023-02-12T11:40:22;94216.91;;;4.83;51.95
65376;BME280;51976;47.332;9.404;2023-02-12T11:42:52;94226.84;;;5.38;51.52
65376;BME280;51976;47.332;9.404;2023-02-12T11:45:22;94163.72;;;4.36;52.26
65376;BME280;51976;47.332;9.404;2023-02-12T11:47:51;94224.53;;;5.17;52.03
65376;BME280;51976;47.332;9.404;2023-02-12T11:50:24;94229.09;;;5.03;52.42
65376;BME280;51976;47.332;9.404;2023-02-12T11:52:53;94230.28;;;5.14;52.19
65376;BME280;51976;47.332;9.404;2023-02-12T11:55:24;94203.06;;;5.24;51.73
65376;BME280;51976;47.332;9.404;2023-02-12T11:57:52;94220.28;;;5.34;51.84
65376;BME280;51976;47.332;9.404;2023-02-12T12:00:28;94177.28;;;5.04;52.05
65376;BME280;51976;47.332;9.404;2023-02-12T12:03:11;94214.66;;;5.18;52.27
65376;BME280;51976;47.332;9.404;2023-02-12T12:05:45;94224.63;;;5.29;52.55
65376;BME280;51976;47.332;9.404;2023-02-12T12:08:25;94220.66;;;5.06;53.49
65376;BME280;51976;47.332;9.404;2023-02-12T12:10:58;94223.38;;;5.00;53.55
65376;BME280;51976;47.332;9.404;2023-02-12T12:13:34;94199.88;;;5.08;53.23
65376;BME280;51976;47.332;9.404;2023-02-12T12:16:08;94216.03;;;5.20;53.06
65376;BME280;51976;47.332;9.404;2023-02-12T12:18:58;94215.50;;;5.12;53.48
65376;BME280;51976;47.332;9.404;2023-02-12T12:21:58;94190.03;;;4.71;53.56
65376;BME280;51976;47.332;9.404;2023-02-12T12:24:42;94196.13;;;4.85;53.48
65376;BME280;51976;47.332;9.404;2023-02-12T12:27:34;94203.09;;;4.92;53.61
65376;BME280;51976;47.332;9.404;2023-02-12T12:30:35;94186.53;;;4.70;53.80
65376;BME280;51976;47.332;9.404;2023-02-12T12:33:04;94200.72;;;4.71;53.85
65376;BME280;51976;47.332;9.404;2023-02-12T12:35:43;94205.81;;;4.79;53.83
65376;BME280;51976;47.332;9.404;2023-02-12T12:38:51;94188.66;;;4.55;54.10
65376;BME280;51976;47.332;9.404;2023-02-12T12:47:40;94196.16;;;4.78;52.82
65376;BME280;51976;47.332;9.404;2023-02-12T12:50:34;94203.81;;;4.68;52.67
65376;BME280;51976;47.332;9.404;2023-02-12T12:56:36;94127.22;;;4.17;52.24
65376;BME280;51976;47.332;9.404;2023-02-12T12:59:28;94195.19;;;4.66;52.40
65376;BME280;51976;47.332;9.404;2023-02-12T13:02:29;94205.84;;;4.72;52.31
65376;BME280;51976;47.332;9.404;2023-02-12T13:05:32;94206.34;;;4.94;51.97
65376;BME280;51976;47.332;9.404;2023-02-12T13:08:16;94203.50;;;4.89;51.36
65376;BME280;51976;47.332;9.404;2023-02-12T13:10:50;94192.75;;;4.96;50.96
65376;BME280;51976;47.332;9.404;2023-02-12T13:13:32;94208.16;;;5.00;51.42
65376;BME280;51976;47.332;9.404;2023-02-12T13:18:59;94145.53;;;4.90;50.73
65376;BME280;51976;47.332;9.404;2023-02-12T13:21:57;94201.38;;;5.29;50.52
65376;BME280;51976;47.332;9.404;2023-02-12T13:24:33;94211.81;;;5.37;50.25
65376;BME280;51976;47.332;9.404;2023-02-12T13:27:07;94206.47;;;5.37;49.93
65376;BME280;51976;47.332;9.404;2023-02-12T13:29:47;94171.69;;;5.13;50.07
65376;BME280;51976;47.332;9.404;2023-02-12T13:32:27;94221.69;;;5.37;49.99
65376;BME280;51976;47.332;9.404;2023-02-12T13:34:55;94212.50;;;5.26;50.00
65376;BME280;51976;47.332;9.404;2023-02-12T13:37:42;94190.31;;;5.26;50.20
65376;BME280;51976;47.332;9.404;2023-02-12T13:43:04;94215.88;;;5.47;49.97
65376;BME280;51976;47.332;9.404;2023-02-12T13:45:54;94214.72;;;5.61;49.83
65376;BME280;51976;47.332;9.404;2023-02-12T13:48:32;94181.91;;;5.47;49.93
65376;BME280;51976;47.332;9.404;2023-02-12T13:51:25;94168.28;;;5.30;49.77
65376;BME280;51976;47.332;9.404;2023-02-12T13:54:24;94201.13;;;5.62;49.89